ΕΜΥ, Εθνική Μετεωρολογική Υπηρεσία - Δελτία Καιρού, Προγνώσεις

ΑΕΡΟΝΑΥΤΙΛΙΑ

GREEK AIRPORTS CODES

LGNX 050950Z 14014KT 9999 FEW018 26/14 Q1015=

EUROPEAN AIRPORTS CODES